sensor_id;sensor_type;location;lat;lon;timestamp;temperature;humidity
2967;DHT22;1493;51.496;7.210;2023-03-01T00:00:54;-0.40;99.90
2967;DHT22;1493;51.496;7.210;2023-03-01T00:03:28;-0.40;99.90
2967;DHT22;1493;51.496;7.210;2023-03-01T00:05:54;-0.40;99.90
2967;DHT22;1493;51.496;7.210;2023-03-01T00:08:21;-0.40;99.90
2967;DHT22;1493;51.496;7.210;2023-03-01T00:10:48;-0.40;99.90
2967;DHT22;1493;51.496;7.210;2023-03-01T00:13:15;-0.50;99.90
2967;DHT22;1493;51.496;7.210;2023-03-01T00:15:41;-0.50;99.90
2967;DHT22;1493;51.496;7.210;2023-03-01T00:18:09;-0.50;99.90
2967;DHT22;1493;51.496;7.210;2023-03-01T00:20:37;-0.50;54.10
2967;DHT22;1493;51.496;7.210;2023-03-01T00:23:04;-0.50;99.90
2967;DHT22;1493;51.496;7.210;2023-03-01T00:25:30;-0.50;99.90
2967;DHT22;1493;51.496;7.210;2023-03-01T00:27:57;-0.50;1.00
2967;DHT22;1493;51.496;7.210;2023-03-01T00:30:24;-0.50;1.00
2967;DHT22;1493;51.496;7.210;2023-03-01T00:32:51;-0.60;1.00
2967;DHT22;1493;51.496;7.210;2023-03-01T00:35:17;-0.60;1.00
2967;DHT22;1493;51.496;7.210;2023-03-01T00:37:46;-0.60;1.00
2967;DHT22;1493;51.496;7.210;2023-03-01T00:40:13;-0.60;1.00
2967;DHT22;1493;51.496;7.210;2023-03-01T00:42:41;-0.60;99.90
2967;DHT22;1493;51.496;7.210;2023-03-01T00:45:09;-0.70;99.90
2967;DHT22;1493;51.496;7.210;2023-03-01T00:47:36;-0.80;1.00
2967;DHT22;1493;51.496;7.210;2023-03-01T00:50:03;-0.80;1.00
2967;DHT22;1493;51.496;7.210;2023-03-01T00:52:30;-0.80;1.00
2967;DHT22;1493;51.496;7.210;2023-03-01T00:54:58;-0.90;1.00
2967;DHT22;1493;51.496;7.210;2023-03-01T00:57:25;-0.90;36.20
2967;DHT22;1493;51.496;7.210;2023-03-01T00:59:51;-0.90;99.90
2967;DHT22;1493;51.496;7.210;2023-03-01T01:02:19;-1.00;99.90
2967;DHT22;1493;51.496;7.210;2023-03-01T01:04:47;-1.00;99.90
2967;DHT22;1493;51.496;7.210;2023-03-01T01:07:15;-1.00;99.90
2967;DHT22;1493;51.496;7.210;2023-03-01T01:09:42;-1.00;99.90
2967;DHT22;1493;51.496;7.210;2023-03-01T01:12:10;-1.10;99.90
2967;DHT22;1493;51.496;7.210;2023-03-01T01:14:37;-1.10;99.90
2967;DHT22;1493;51.496;7.210;2023-03-01T01:17:04;-1.10;1.00
2967;DHT22;1493;51.496;7.210;2023-03-01T01:19:31;-1.10;99.90
2967;DHT22;1493;51.496;7.210;2023-03-01T01:21:58;-1.20;1.00
2967;DHT22;1493;51.496;7.210;2023-03-01T01:24:24;-1.30;99.90
2967;DHT22;1493;51.496;7.210;2023-03-01T01:26:51;-1.30;1.00
2967;DHT22;1493;51.496;7.210;2023-03-01T01:29:19;-1.30;1.00
2967;DHT22;1493;51.496;7.210;2023-03-01T01:31:46;-1.30;2.90
2967;DHT22;1493;51.496;7.210;2023-03-01T01:34:15;-1.30;99.90
2967;DHT22;1493;51.496;7.210;2023-03-01T01:36:43;-1.30;46.50
2967;DHT22;1493;51.496;7.210;2023-03-01T01:39:10;-1.30;99.90
2967;DHT22;1493;51.496;7.210;2023-03-01T01:41:39;-1.40;99.90
2967;DHT22;1493;51.496;7.210;2023-03-01T01:44:15;-1.40;1.00
2967;DHT22;1493;51.496;7.210;2023-03-01T01:46:46;-1.40;1.00
2967;DHT22;1493;51.496;7.210;2023-03-01T01:49:25;-1.40;1.00
2967;DHT22;1493;51.496;7.210;2023-03-01T01:51:58;-1.40;99.90
2967;DHT22;1493;51.496;7.210;2023-03-01T01:54:28;-1.50;99.90
2967;DHT22;1493;51.496;7.210;2023-03-01T01:57:01;-1.50;99.90
2967;DHT22;1493;51.496;7.210;2023-03-01T01:59:30;-1.50;99.90
2967;DHT22;1493;51.496;7.210;2023-03-01T02:02:01;-1.50;99.90
2967;DHT22;1493;51.496;7.210;2023-03-01T02:04:30;-1.50;99.90
2967;DHT22;1493;51.496;7.210;2023-03-01T02:07:01;-1.50;99.90
2967;DHT22;1493;51.496;7.210;2023-03-01T02:09:30;-1.50;99.90
2967;DHT22;1493;51.496;7.210;2023-03-01T02:11:58;-1.50;61.30
2967;DHT22;1493;51.496;7.210;2023-03-01T02:14:25;-1.50;99.90
2967;DHT22;1493;51.496;7.210;2023-03-01T02:16:52;-1.50;99.90
2967;DHT22;1493;51.496;7.210;2023-03-01T02:19:29;-1.50;99.90
2967;DHT22;1493;51.496;7.210;2023-03-01T02:22:02;-1.50;99.90
2967;DHT22;1493;51.496;7.210;2023-03-01T02:24:36;-1.50;1.00
2967;DHT22;1493;51.496;7.210;2023-03-01T02:27:07;-1.40;16.40
2967;DHT22;1493;51.496;7.210;2023-03-01T02:29:37;-1.40;99.90
2967;DHT22;1493;51.496;7.210;2023-03-01T02:32:04;-1.40;70.10
2967;DHT22;1493;51.496;7.210;2023-03-01T02:34:32;-1.50;1.00
2967;DHT22;1493;51.496;7.210;2023-03-01T02:37:02;-1.40;1.00
2967;DHT22;1493;51.496;7.210;2023-03-01T02:39:33;-1.40;99.90
2967;DHT22;1493;51.496;7.210;2023-03-01T02:42:02;-1.40;99.90
2967;DHT22;1493;51.496;7.210;2023-03-01T02:44:29;-1.40;99.90
2967;DHT22;1493;51.496;7.210;2023-03-01T02:47:00;-1.30;1.00
2967;DHT22;1493;51.496;7.210;2023-03-01T02:49:30;-1.30;1.00
2967;DHT22;1493;51.496;7.210;2023-03-01T02:52:23;-1.30;99.90
2967;DHT22;1493;51.496;7.210;2023-03-01T02:54:57;-1.30;99.90
2967;DHT22;1493;51.496;7.210;2023-03-01T02:57:26;-1.30;1.00
2967;DHT22;1493;51.496;7.210;2023-03-01T02:59:54;-1.30;1.00
2967;DHT22;1493;51.496;7.210;2023-03-01T03:02:24;-1.20;99.90
2967;DHT22;1493;51.496;7.210;2023-03-01T03:05:03;-1.30;1.00
2967;DHT22;1493;51.496;7.210;2023-03-01T03:07:32;-1.30;1.00
2967;DHT22;1493;51.496;7.210;2023-03-01T03:09:59;-1.30;99.90
2967;DHT22;1493;51.496;7.210;2023-03-01T03:12:26;-1.30;99.90
2967;DHT22;1493;51.496;7.210;2023-03-01T03:14:53;-1.30;99.90
2967;DHT22;1493;51.496;7.210;2023-03-01T03:17:19;-1.30;25.60
2967;DHT22;1493;51.496;7.210;2023-03-01T03:19:48;-1.30;1.00
2967;DHT22;1493;51.496;7.210;2023-03-01T03:22:15;-1.30;1.00
2967;DHT22;1493;51.496;7.210;2023-03-01T03:24:41;-1.30;99.90
2967;DHT22;1493;51.496;7.210;2023-03-01T03:27:08;-1.30;99.90
2967;DHT22;1493;51.496;7.210;2023-03-01T03:29:35;-1.30;99.90
2967;DHT22;1493;51.496;7.210;2023-03-01T03:32:02;-1.30;99.90
2967;DHT22;1493;51.496;7.210;2023-03-01T03:34:29;-1.30;99.90
2967;DHT22;1493;51.496;7.210;2023-03-01T03:36:57;-1.30;99.90
2967;DHT22;1493;51.496;7.210;2023-03-01T03:39:25;-1.40;99.90
2967;DHT22;1493;51.496;7.210;2023-03-01T03:41:52;-1.40;99.90
2967;DHT22;1493;51.496;7.210;2023-03-01T03:44:19;-1.40;1.00
2967;DHT22;1493;51.496;7.210;2023-03-01T03:46:45;-1.40;1.00
2967;DHT22;1493;51.496;7.210;2023-03-01T03:49:12;-1.40;1.00
2967;DHT22;1493;51.496;7.210;2023-03-01T03:51:39;-1.50;1.00
2967;DHT22;1493;51.496;7.210;2023-03-01T03:54:07;-1.50;64.80
2967;DHT22;1493;51.496;7.210;2023-03-01T03:56:34;-1.50;99.90
2967;DHT22;1493;51.496;7.210;2023-03-01T03:59:01;-1.60;99.90
2967;DHT22;1493;51.496;7.210;2023-03-01T04:01:28;-1.60;1.00
2967;DHT22;1493;51.496;7.210;2023-03-01T04:03:54;-1.60;1.00
2967;DHT22;1493;51.496;7.210;2023-03-01T04:06:21;-1.70;1.00
2967;DHT22;1493;51.496;7.210;2023-03-01T04:08:48;-1.70;1.00
2967;DHT22;1493;51.496;7.210;2023-03-01T04:11:17;-1.80;1.00
2967;DHT22;1493;51.496;7.210;2023-03-01T04:13:56;-1.80;99.90
2967;DHT22;1493;51.496;7.210;2023-03-01T04:16:23;-1.80;1.00
2967;DHT22;1493;51.496;7.210;2023-03-01T04:18:51;-1.80;99.90
2967;DHT22;1493;51.496;7.210;2023-03-01T04:21:19;-1.90;36.50
2967;DHT22;1493;51.496;7.210;2023-03-01T04:23:46;-1.90;1.00
2967;DHT22;1493;51.496;7.210;2023-03-01T04:26:12;-1.90;99.90
2967;DHT22;1493;51.496;7.210;2023-03-01T04:28:42;-2.00;99.90
2967;DHT22;1493;51.496;7.210;2023-03-01T04:31:12;-2.00;99.90
2967;DHT22;1493;51.496;7.210;2023-03-01T04:33:42;-2.00;99.90
2967;DHT22;1493;51.496;7.210;2023-03-01T04:36:09;-2.10;1.00
2967;DHT22;1493;51.496;7.210;2023-03-01T04:38:36;-2.10;76.70
2967;DHT22;1493;51.496;7.210;2023-03-01T04:41:04;-2.10;99.90
2967;DHT22;1493;51.496;7.210;2023-03-01T04:43:31;-2.10;99.90
2967;DHT22;1493;51.496;7.210;2023-03-01T04:46:06;-2.10;1.00
2967;DHT22;1493;51.496;7.210;2023-03-01T04:48:35;-2.20;99.90
2967;DHT22;1493;51.496;7.210;2023-03-01T04:51:03;-2.20;1.00
2967;DHT22;1493;51.496;7.210;2023-03-01T04:53:30;-2.20;1.00
2967;DHT22;1493;51.496;7.210;2023-03-01T04:55:57;-2.30;1.00
2967;DHT22;1493;51.496;7.210;2023-03-01T04:58:24;-2.30;79.30
2967;DHT22;1493;51.496;7.210;2023-03-01T05:00:52;-2.30;46.80
2967;DHT22;1493;51.496;7.210;2023-03-01T05:03:20;-2.30;99.90
2967;DHT22;1493;51.496;7.210;2023-03-01T05:05:49;-2.30;99.90
2967;DHT22;1493;51.496;7.210;2023-03-01T05:08:16;-2.30;99.90
2967;DHT22;1493;51.496;7.210;2023-03-01T05:10:45;-2.30;1.00
2967;DHT22;1493;51.496;7.210;2023-03-01T05:13:13;-2.30;98.30
2967;DHT22;1493;51.496;7.210;2023-03-01T05:15:40;-2.30;51.10
2967;DHT22;1493;51.496;7.210;2023-03-01T05:18:07;-2.30;99.90
2967;DHT22;1493;51.496;7.210;2023-03-01T05:20:38;-2.30;61.60
2967;DHT22;1493;51.496;7.210;2023-03-01T05:23:05;-2.30;99.90
2967;DHT22;1493;51.496;7.210;2023-03-01T05:25:33;-2.40;99.90
2967;DHT22;1493;51.496;7.210;2023-03-01T05:28:06;-2.40;99.90
2967;DHT22;1493;51.496;7.210;2023-03-01T05:30:34;-2.40;99.90
2967;DHT22;1493;51.496;7.210;2023-03-01T05:33:01;-2.40;99.90
2967;DHT22;1493;51.496;7.210;2023-03-01T05:35:28;-2.40;99.90
2967;DHT22;1493;51.496;7.210;2023-03-01T05:37:59;-2.40;99.90
2967;DHT22;1493;51.496;7.210;2023-03-01T05:40:26;-2.40;99.90
2967;DHT22;1493;51.496;7.210;2023-03-01T05:42:54;-2.40;99.90
2967;DHT22;1493;51.496;7.210;2023-03-01T05:45:22;-2.40;99.90
2967;DHT22;1493;51.496;7.210;2023-03-01T05:47:50;-2.40;99.90
2967;DHT22;1493;51.496;7.210;2023-03-01T05:50:19;-2.40;99.90
2967;DHT22;1493;51.496;7.210;2023-03-01T05:52:47;-2.30;99.90
2967;DHT22;1493;51.496;7.210;2023-03-01T05:55:16;-2.30;99.90
2967;DHT22;1493;51.496;7.210;2023-03-01T05:57:43;-2.20;99.90
2967;DHT22;1493;51.496;7.210;2023-03-01T06:00:12;-2.20;53.50
2967;DHT22;1493;51.496;7.210;2023-03-01T06:02:39;-2.20;1.00
2967;DHT22;1493;51.496;7.210;2023-03-01T06:05:08;-2.10;1.00
2967;DHT22;1493;51.496;7.210;2023-03-01T06:07:36;-2.20;1.00
2967;DHT22;1493;51.496;7.210;2023-03-01T06:10:04;-2.10;99.90
2967;DHT22;1493;51.496;7.210;2023-03-01T06:12:32;-2.10;37.00
2967;DHT22;1493;51.496;7.210;2023-03-01T06:14:59;-2.10;1.00
2967;DHT22;1493;51.496;7.210;2023-03-01T06:17:29;-2.10;99.90
2967;DHT22;1493;51.496;7.210;2023-03-01T06:19:56;-1.90;99.90
2967;DHT22;1493;51.496;7.210;2023-03-01T06:22:23;-1.90;1.00
2967;DHT22;1493;51.496;7.210;2023-03-01T06:24:49;-1.90;1.00
2967;DHT22;1493;51.496;7.210;2023-03-01T06:27:18;-1.90;1.00
2967;DHT22;1493;51.496;7.210;2023-03-01T06:29:49;-1.80;1.00
2967;DHT22;1493;51.496;7.210;2023-03-01T06:32:16;-1.80;99.90
2967;DHT22;1493;51.496;7.210;2023-03-01T06:34:43;-1.80;20.30
2967;DHT22;1493;51.496;7.210;2023-03-01T06:37:10;-1.80;1.00
2967;DHT22;1493;51.496;7.210;2023-03-01T06:39:37;-1.80;1.00
2967;DHT22;1493;51.496;7.210;2023-03-01T06:42:04;-1.70;1.00
2967;DHT22;1493;51.496;7.210;2023-03-01T06:44:31;-1.60;99.90
2967;DHT22;1493;51.496;7.210;2023-03-01T06:46:59;-1.60;1.00
2967;DHT22;1493;51.496;7.210;2023-03-01T06:49:26;-1.60;1.00
2967;DHT22;1493;51.496;7.210;2023-03-01T06:51:53;-1.50;99.90
2967;DHT22;1493;51.496;7.210;2023-03-01T06:54:20;-1.50;99.90
2967;DHT22;1493;51.496;7.210;2023-03-01T06:56:48;-1.50;99.90
2967;DHT22;1493;51.496;7.210;2023-03-01T06:59:16;-1.50;99.90
2967;DHT22;1493;51.496;7.210;2023-03-01T07:01:43;-1.40;79.10
2967;DHT22;1493;51.496;7.210;2023-03-01T07:04:12;-1.30;99.90
2967;DHT22;1493;51.496;7.210;2023-03-01T07:06:39;-1.20;99.90
2967;DHT22;1493;51.496;7.210;2023-03-01T07:09:06;-1.20;99.90
2967;DHT22;1493;51.496;7.210;2023-03-01T07:11:33;-1.20;99.90
2967;DHT22;1493;51.496;7.210;2023-03-01T07:14:00;-1.20;99.90
2967;DHT22;1493;51.496;7.210;2023-03-01T07:16:27;-1.10;99.90
2967;DHT22;1493;51.496;7.210;2023-03-01T07:18:54;-1.10;89.30
2967;DHT22;1493;51.496;7.210;2023-03-01T07:21:22;-1.10;93.70
2967;DHT22;1493;51.496;7.210;2023-03-01T07:23:49;-1.00;99.90
2967;DHT22;1493;51.496;7.210;2023-03-01T07:26:16;-0.90;1.00
2967;DHT22;1493;51.496;7.210;2023-03-01T07:28:44;-0.90;1.00
2967;DHT22;1493;51.496;7.210;2023-03-01T07:31:20;-0.90;1.00
2967;DHT22;1493;51.496;7.210;2023-03-01T07:33:47;-0.90;1.00
2967;DHT22;1493;51.496;7.210;2023-03-01T07:36:14;-0.80;1.00
2967;DHT22;1493;51.496;7.210;2023-03-01T07:38:42;-0.70;1.00
2967;DHT22;1493;51.496;7.210;2023-03-01T07:41:09;-0.70;1.00
2967;DHT22;1493;51.496;7.210;2023-03-01T07:43:36;-0.70;1.00
2967;DHT22;1493;51.496;7.210;2023-03-01T07:46:03;-0.70;1.00
2967;DHT22;1493;51.496;7.210;2023-03-01T07:48:32;-0.60;1.00
2967;DHT22;1493;51.496;7.210;2023-03-01T07:50:59;-0.50;1.00
2967;DHT22;1493;51.496;7.210;2023-03-01T07:53:26;-0.50;1.00
2967;DHT22;1493;51.496;7.210;2023-03-01T07:56:02;-0.40;99.90
2967;DHT22;1493;51.496;7.210;2023-03-01T07:58:29;-0.30;99.90
2967;DHT22;1493;51.496;7.210;2023-03-01T08:00:55;-0.20;99.90
2967;DHT22;1493;51.496;7.210;2023-03-01T08:03:22;-0.20;99.90
2967;DHT22;1493;51.496;7.210;2023-03-01T08:05:49;-0.10;99.90
2967;DHT22;1493;51.496;7.210;2023-03-01T08:08:16;0.00;99.90
2967;DHT22;1493;51.496;7.210;2023-03-01T08:10:43;0.10;99.90
2967;DHT22;1493;51.496;7.210;2023-03-01T08:13:11;0.10;99.90
2967;DHT22;1493;51.496;7.210;2023-03-01T08:15:38;0.20;99.90
2967;DHT22;1493;51.496;7.210;2023-03-01T08:18:05;0.30;87.70
2967;DHT22;1493;51.496;7.210;2023-03-01T08:20:32;0.30;53.40
2967;DHT22;1493;51.496;7.210;2023-03-01T08:22:58;0.40;36.10
2967;DHT22;1493;51.496;7.210;2023-03-01T08:25:25;0.40;34.80
2967;DHT22;1493;51.496;7.210;2023-03-01T08:27:52;0.50;11.50
2967;DHT22;1493;51.496;7.210;2023-03-01T08:30:20;0.60;1.00
2967;DHT22;1493;51.496;7.210;2023-03-01T08:32:49;0.70;1.00
2967;DHT22;1493;51.496;7.210;2023-03-01T08:35:16;0.90;1.00
2967;DHT22;1493;51.496;7.210;2023-03-01T08:37:43;1.20;1.00
2967;DHT22;1493;51.496;7.210;2023-03-01T08:40:11;1.50;1.00
2967;DHT22;1493;51.496;7.210;2023-03-01T08:42:39;1.70;1.00
2967;DHT22;1493;51.496;7.210;2023-03-01T08:45:07;1.80;1.00
2967;DHT22;1493;51.496;7.210;2023-03-01T08:47:36;1.90;1.00
2967;DHT22;1493;51.496;7.210;2023-03-01T08:50:03;2.00;1.00
2967;DHT22;1493;51.496;7.210;2023-03-01T08:52:32;2.30;1.00
2967;DHT22;1493;51.496;7.210;2023-03-01T08:54:59;2.60;1.00
2967;DHT22;1493;51.496;7.210;2023-03-01T08:57:27;2.80;1.00
2967;DHT22;1493;51.496;7.210;2023-03-01T08:59:54;3.00;1.00
2967;DHT22;1493;51.496;7.210;2023-03-01T09:02:22;3.00;1.00
2967;DHT22;1493;51.496;7.210;2023-03-01T09:04:50;3.00;1.00
2967;DHT22;1493;51.496;7.210;2023-03-01T09:07:18;3.20;1.00
2967;DHT22;1493;51.496;7.210;2023-03-01T09:09:45;3.60;1.00
2967;DHT22;1493;51.496;7.210;2023-03-01T09:12:11;4.40;1.00
2967;DHT22;1493;51.496;7.210;2023-03-01T09:14:38;5.10;1.00
2967;DHT22;1493;51.496;7.210;2023-03-01T09:17:06;5.70;99.90
2967;DHT22;1493;51.496;7.210;2023-03-01T09:19:33;6.00;99.90
2967;DHT22;1493;51.496;7.210;2023-03-01T09:22:03;6.60;99.90
2967;DHT22;1493;51.496;7.210;2023-03-01T09:24:30;6.80;99.90
2967;DHT22;1493;51.496;7.210;2023-03-01T09:26:57;6.80;99.90
2967;DHT22;1493;51.496;7.210;2023-03-01T09:29:24;7.20;99.90
2967;DHT22;1493;51.496;7.210;2023-03-01T09:31:51;8.10;99.90
2967;DHT22;1493;51.496;7.210;2023-03-01T09:34:20;8.50;99.90
2967;DHT22;1493;51.496;7.210;2023-03-01T09:36:49;8.20;99.90
2967;DHT22;1493;51.496;7.210;2023-03-01T09:39:17;8.40;99.90
2967;DHT22;1493;51.496;7.210;2023-03-01T09:41:50;9.60;99.90
2967;DHT22;1493;51.496;7.210;2023-03-01T09:44:27;9.90;99.90
2967;DHT22;1493;51.496;7.210;2023-03-01T09:46:55;10.20;99.90
2967;DHT22;1493;51.496;7.210;2023-03-01T09:49:25;10.10;99.90
2967;DHT22;1493;51.496;7.210;2023-03-01T09:51:57;10.50;99.90
2967;DHT22;1493;51.496;7.210;2023-03-01T09:54:27;11.90;99.90
2967;DHT22;1493;51.496;7.210;2023-03-01T09:57:06;11.70;99.90
2967;DHT22;1493;51.496;7.210;2023-03-01T10:02:27;11.50;99.90
2967;DHT22;1493;51.496;7.210;2023-03-01T10:05:05;11.70;99.90
2967;DHT22;1493;51.496;7.210;2023-03-01T10:07:44;11.80;99.90
2967;DHT22;1493;51.496;7.210;2023-03-01T10:10:23;12.80;99.90
2967;DHT22;1493;51.496;7.210;2023-03-01T10:12:52;12.20;99.90
2967;DHT22;1493;51.496;7.210;2023-03-01T10:15:25;10.70;99.90
2967;DHT22;1493;51.496;7.210;2023-03-01T10:17:57;9.90;99.90
2967;DHT22;1493;51.496;7.210;2023-03-01T10:20:26;10.20;99.90
2967;DHT22;1493;51.496;7.210;2023-03-01T10:22:53;9.80;99.90
2967;DHT22;1493;51.496;7.210;2023-03-01T10:25:36;9.10;99.90
2967;DHT22;1493;51.496;7.210;2023-03-01T10:28:16;8.50;99.90
2967;DHT22;1493;51.496;7.210;2023-03-01T10:30:43;8.30;99.90
2967;DHT22;1493;51.496;7.210;2023-03-01T10:33:16;9.30;99.90
2967;DHT22;1493;51.496;7.210;2023-03-01T10:35:43;9.70;99.90
2967;DHT22;1493;51.496;7.210;2023-03-01T10:38:12;10.10;99.90
2967;DHT22;1493;51.496;7.210;2023-03-01T10:40:53;11.00;99.90
2967;DHT22;1493;51.496;7.210;2023-03-01T10:43:21;12.50;99.90
2967;DHT22;1493;51.496;7.210;2023-03-01T10:45:48;14.10;99.90
2967;DHT22;1493;51.496;7.210;2023-03-01T10:48:16;15.00;99.90
2967;DHT22;1493;51.496;7.210;2023-03-01T10:50:45;15.90;99.90
2967;DHT22;1493;51.496;7.210;2023-03-01T10:53:25;16.60;99.90
2967;DHT22;1493;51.496;7.210;2023-03-01T10:56:00;17.00;99.90
2967;DHT22;1493;51.496;7.210;2023-03-01T10:58:28;17.20;99.90
2967;DHT22;1493;51.496;7.210;2023-03-01T11:00:57;17.30;99.90
2967;DHT22;1493;51.496;7.210;2023-03-01T11:03:25;17.70;99.90
2967;DHT22;1493;51.496;7.210;2023-03-01T11:05:58;17.80;99.90
2967;DHT22;1493;51.496;7.210;2023-03-01T11:08:34;18.00;99.90
2967;DHT22;1493;51.496;7.210;2023-03-01T11:11:13;18.70;99.90
2967;DHT22;1493;51.496;7.210;2023-03-01T11:13:52;19.40;99.90
2967;DHT22;1493;51.496;7.210;2023-03-01T11:16:25;19.40;99.90
2967;DHT22;1493;51.496;7.210;2023-03-01T11:21:47;20.00;99.90
2967;DHT22;1493;51.496;7.210;2023-03-01T11:24:17;19.90;99.90
2967;DHT22;1493;51.496;7.210;2023-03-01T11:26:50;19.90;99.90
2967;DHT22;1493;51.496;7.210;2023-03-01T11:29:27;19.10;99.90
2967;DHT22;1493;51.496;7.210;2023-03-01T11:31:58;19.50;99.90
2967;DHT22;1493;51.496;7.210;2023-03-01T11:34:36;20.70;99.90
2967;DHT22;1493;51.496;7.210;2023-03-01T11:37:26;20.80;99.90
2967;DHT22;1493;51.496;7.210;2023-03-01T11:39:59;20.20;99.90
2967;DHT22;1493;51.496;7.210;2023-03-01T11:42:42;18.80;99.90
2967;DHT22;1493;51.496;7.210;2023-03-01T11:45:13;18.30;99.90
2967;DHT22;1493;51.496;7.210;2023-03-01T11:48:07;19.10;99.90
2967;DHT22;1493;51.496;7.210;2023-03-01T11:50:42;18.00;99.90
2967;DHT22;1493;51.496;7.210;2023-03-01T11:53:30;19.40;99.90
2967;DHT22;1493;51.496;7.210;2023-03-01T11:56:09;18.90;99.90
2967;DHT22;1493;51.496;7.210;2023-03-01T11:58:52;20.00;99.90
2967;DHT22;1493;51.496;7.210;2023-03-01T12:01:44;21.00;99.90
2967;DHT22;1493;51.496;7.210;2023-03-01T12:07:15;20.40;99.90
2967;DHT22;1493;51.496;7.210;2023-03-01T12:09:59;18.30;99.90
2967;DHT22;1493;51.496;7.210;2023-03-01T12:12:36;18.70;99.90
2967;DHT22;1493;51.496;7.210;2023-03-01T12:15:35;19.10;99.90
2967;DHT22;1493;51.496;7.210;2023-03-01T12:18:21;20.30;99.90
2967;DHT22;1493;51.496;7.210;2023-03-01T12:21:01;22.00;99.90
2967;DHT22;1493;51.496;7.210;2023-03-01T12:23:56;20.90;99.90
2967;DHT22;1493;51.496;7.210;2023-03-01T12:26:30;20.90;99.90
2967;DHT22;1493;51.496;7.210;2023-03-01T12:29:12;21.30;99.90
2967;DHT22;1493;51.496;7.210;2023-03-01T12:31:56;21.60;99.90
2967;DHT22;1493;51.496;7.210;2023-03-01T12:34:38;22.60;99.90
2967;DHT22;1493;51.496;7.210;2023-03-01T12:37:21;22.40;99.90
2967;DHT22;1493;51.496;7.210;2023-03-01T12:42:41;20.80;99.90
2967;DHT22;1493;51.496;7.210;2023-03-01T12:45:34;21.60;99.90
2967;DHT22;1493;51.496;7.210;2023-03-01T12:48:20;21.90;99.90
2967;DHT22;1493;51.496;7.210;2023-03-01T12:50:53;21.60;99.90
2967;DHT22;1493;51.496;7.210;2023-03-01T12:53:24;21.40;99.90
2967;DHT22;1493;51.496;7.210;2023-03-01T12:55:53;21.10;99.90
2967;DHT22;1493;51.496;7.210;2023-03-01T12:58:25;20.30;99.90
2967;DHT22;1493;51.496;7.210;2023-03-01T13:01:02;19.90;99.90
2967;DHT22;1493;51.496;7.210;2023-03-01T13:03:38;21.30;99.90
2967;DHT22;1493;51.496;7.210;2023-03-01T13:06:15;21.50;99.90
2967;DHT22;1493;51.496;7.210;2023-03-01T13:08:49;20.90;99.90
2967;DHT22;1493;51.496;7.210;2023-03-01T13:11:20;20.90;99.90
2967;DHT22;1493;51.496;7.210;2023-03-01T13:13:48;21.30;99.90
2967;DHT22;1493;51.496;7.210;2023-03-01T13:16:40;21.90;99.90
2967;DHT22;1493;51.496;7.210;2023-03-01T13:19:13;22.60;99.90
2967;DHT22;1493;51.496;7.210;2023-03-01T13:21:42;23.00;99.90
2967;DHT22;1493;51.496;7.210;2023-03-01T13:24:28;21.30;99.90
2967;DHT22;1493;51.496;7.210;2023-03-01T13:27:23;21.60;99.90
2967;DHT22;1493;51.496;7.210;2023-03-01T13:29:55;21.30;99.90
2967;DHT22;1493;51.496;7.210;2023-03-01T13:32:26;21.30;99.90
2967;DHT22;1493;51.496;7.210;2023-03-01T13:34:58;22.10;99.90
2967;DHT22;1493;51.496;7.210;2023-03-01T13:37:34;22.40;99.90
2967;DHT22;1493;51.496;7.210;2023-03-01T13:43:28;21.70;99.90
2967;DHT22;1493;51.496;7.210;2023-03-01T13:45:56;21.40;99.90
2967;DHT22;1493;51.496;7.210;2023-03-01T13:48:26;20.80;99.90
2967;DHT22;1493;51.496;7.210;2023-03-01T13:50:58;19.80;99.90
2967;DHT22;1493;51.496;7.210;2023-03-01T13:53:29;20.60;99.90
2967;DHT22;1493;51.496;7.210;2023-03-01T13:56:00;21.90;99.90
2967;DHT22;1493;51.496;7.210;2023-03-01T13:58:30;21.70;99.90
2967;DHT22;1493;51.496;7.210;2023-03-01T14:01:02;22.20;99.90
2967;DHT22;1493;51.496;7.210;2023-03-01T14:03:30;22.10;99.90
2967;DHT22;1493;51.496;7.210;2023-03-01T14:06:01;20.40;99.90
2967;DHT22;1493;51.496;7.210;2023-03-01T14:08:29;19.50;99.90
2967;DHT22;1493;51.496;7.210;2023-03-01T14:14:07;20.10;99.90
2967;DHT22;1493;51.496;7.210;2023-03-01T14:16:42;19.70;99.90
2967;DHT22;1493;51.496;7.210;2023-03-01T14:19:17;21.00;99.90
2967;DHT22;1493;51.496;7.210;2023-03-01T14:21:47;21.60;99.90
2967;DHT22;1493;51.496;7.210;2023-03-01T14:24:20;20.80;99.90
2967;DHT22;1493;51.496;7.210;2023-03-01T14:26:49;21.00;99.90
2967;DHT22;1493;51.496;7.210;2023-03-01T14:29:34;21.10;99.90
2967;DHT22;1493;51.496;7.210;2023-03-01T14:32:18;19.80;99.90
2967;DHT22;1493;51.496;7.210;2023-03-01T14:34:47;18.10;99.90
2967;DHT22;1493;51.496;7.210;2023-03-01T14:37:21;16.40;99.90
2967;DHT22;1493;51.496;7.210;2023-03-01T14:39:49;14.90;99.90
2967;DHT22;1493;51.496;7.210;2023-03-01T14:42:17;13.70;99.90
2967;DHT22;1493;51.496;7.210;2023-03-01T14:44:47;13.30;99.90
2967;DHT22;1493;51.496;7.210;2023-03-01T14:47:16;12.70;99.90
2967;DHT22;1493;51.496;7.210;2023-03-01T14:49:48;11.50;99.90
2967;DHT22;1493;51.496;7.210;2023-03-01T14:52:21;11.10;99.90
2967;DHT22;1493;51.496;7.210;2023-03-01T14:54:51;10.90;99.90
2967;DHT22;1493;51.496;7.210;2023-03-01T14:57:20;10.10;99.90
2967;DHT22;1493;51.496;7.210;2023-03-01T14:59:48;9.60;99.90
2967;DHT22;1493;51.496;7.210;2023-03-01T15:02:20;9.30;99.90
2967;DHT22;1493;51.496;7.210;2023-03-01T15:04:51;8.90;99.90
2967;DHT22;1493;51.496;7.210;2023-03-01T15:07:18;8.70;99.90
2967;DHT22;1493;51.496;7.210;2023-03-01T15:09:47;8.50;99.90
2967;DHT22;1493;51.496;7.210;2023-03-01T15:12:38;8.30;99.90
2967;DHT22;1493;51.496;7.210;2023-03-01T15:15:33;8.20;99.90
2967;DHT22;1493;51.496;7.210;2023-03-01T15:18:02;8.20;99.90
2967;DHT22;1493;51.496;7.210;2023-03-01T15:20:30;8.20;99.90
2967;DHT22;1493;51.496;7.210;2023-03-01T15:23:01;7.80;99.90
2967;DHT22;1493;51.496;7.210;2023-03-01T15:25:31;7.80;99.90
2967;DHT22;1493;51.496;7.210;2023-03-01T15:28:00;7.80;99.90
2967;DHT22;1493;51.496;7.210;2023-03-01T15:30:30;7.70;99.90
2967;DHT22;1493;51.496;7.210;2023-03-01T15:33:34;7.60;99.90
2967;DHT22;1493;51.496;7.210;2023-03-01T15:36:04;7.70;99.90
2967;DHT22;1493;51.496;7.210;2023-03-01T15:38:52;7.60;99.90
2967;DHT22;1493;51.496;7.210;2023-03-01T15:41:25;7.60;99.90
2967;DHT22;1493;51.496;7.210;2023-03-01T15:43:53;7.50;99.90
2967;DHT22;1493;51.496;7.210;2023-03-01T15:46:26;7.50;99.90
2967;DHT22;1493;51.496;7.210;2023-03-01T15:48:56;7.50;99.90
2967;DHT22;1493;51.496;7.210;2023-03-01T15:51:34;7.60;99.90
2967;DHT22;1493;51.496;7.210;2023-03-01T15:54:04;7.50;99.90
2967;DHT22;1493;51.496;7.210;2023-03-01T15:56:33;7.40;99.90
2967;DHT22;1493;51.496;7.210;2023-03-01T15:59:01;7.30;99.90
2967;DHT22;1493;51.496;7.210;2023-03-01T16:01:29;7.30;99.90
2967;DHT22;1493;51.496;7.210;2023-03-01T16:03:56;7.30;99.90
2967;DHT22;1493;51.496;7.210;2023-03-01T16:06:24;7.30;99.90
2967;DHT22;1493;51.496;7.210;2023-03-01T16:08:51;7.30;99.90
2967;DHT22;1493;51.496;7.210;2023-03-01T16:11:19;7.30;99.90
2967;DHT22;1493;51.496;7.210;2023-03-01T16:13:48;7.30;99.90
2967;DHT22;1493;51.496;7.210;2023-03-01T16:16:15;7.20;99.90
2967;DHT22;1493;51.496;7.210;2023-03-01T16:18:43;7.10;99.90
2967;DHT22;1493;51.496;7.210;2023-03-01T16:21:13;7.10;99.90
2967;DHT22;1493;51.496;7.210;2023-03-01T16:23:42;7.00;99.90
2967;DHT22;1493;51.496;7.210;2023-03-01T16:26:09;6.90;99.90
2967;DHT22;1493;51.496;7.210;2023-03-01T16:28:36;6.80;99.90
2967;DHT22;1493;51.496;7.210;2023-03-01T16:31:04;6.80;99.90
2967;DHT22;1493;51.496;7.210;2023-03-01T16:33:31;6.70;99.90
2967;DHT22;1493;51.496;7.210;2023-03-01T16:35:59;6.70;99.90
2967;DHT22;1493;51.496;7.210;2023-03-01T16:38:28;6.70;99.90
2967;DHT22;1493;51.496;7.210;2023-03-01T16:40:55;6.60;99.90
2967;DHT22;1493;51.496;7.210;2023-03-01T16:43:22;6.50;99.90
2967;DHT22;1493;51.496;7.210;2023-03-01T16:45:48;6.50;99.90
2967;DHT22;1493;51.496;7.210;2023-03-01T16:48:16;6.40;99.90